createdAt,value
2022-11-24T00:01:12.320Z,99.56
2022-11-24T00:03:40.262Z,99.87
2022-11-24T00:06:10.833Z,99.63
2022-11-24T00:08:39.912Z,99.70
2022-11-24T00:11:09.595Z,100.00
2022-11-24T00:13:39.016Z,100.00
2022-11-24T00:16:13.782Z,100.00
2022-11-24T00:18:42.898Z,99.64
2022-11-24T00:21:10.891Z,99.13
2022-11-24T00:23:39.054Z,99.34
2022-11-24T00:26:08.806Z,99.18
2022-11-24T00:28:37.626Z,99.03
2022-11-24T00:31:07.102Z,98.17
2022-11-24T00:33:36.284Z,98.71
2022-11-24T00:36:03.931Z,98.68
2022-11-24T00:38:31.605Z,98.06
2022-11-24T00:40:59.300Z,98.30
2022-11-24T00:43:27.005Z,98.00
2022-11-24T00:45:54.792Z,98.16
2022-11-24T00:48:23.174Z,97.90
2022-11-24T00:50:58.334Z,97.85
2022-11-24T00:53:26.358Z,97.83
2022-11-24T00:55:54.548Z,97.74
2022-11-24T00:58:22.849Z,97.64
2022-11-24T01:00:51.205Z,97.78
2022-11-24T01:03:20.572Z,97.99
2022-11-24T01:05:48.549Z,97.78
2022-11-24T01:08:17.618Z,98.12
2022-11-24T01:10:45.423Z,97.67
2022-11-24T01:13:13.317Z,97.20
2022-11-24T01:15:41.027Z,97.62
2022-11-24T01:18:08.734Z,97.13
2022-11-24T01:20:37.714Z,97.66
2022-11-24T01:23:05.415Z,97.66
2022-11-24T01:25:34.357Z,97.87
2022-11-24T01:28:02.010Z,97.97
2022-11-24T01:30:29.713Z,97.63
2022-11-24T01:32:57.429Z,97.91
2022-11-24T01:35:25.043Z,98.18
2022-11-24T01:37:52.661Z,97.79
2022-11-24T01:40:20.492Z,97.37
2022-11-24T01:42:51.166Z,97.62
2022-11-24T01:45:32.235Z,97.32
2022-11-24T01:48:03.411Z,97.03
2022-11-24T01:50:31.328Z,96.79
2022-11-24T01:52:59.751Z,96.63
2022-11-24T01:55:32.781Z,96.37
2022-11-24T01:58:06.287Z,96.02
2022-11-24T02:00:35.669Z,95.59
2022-11-24T02:03:03.507Z,94.77
2022-11-24T02:05:38.152Z,95.52
2022-11-24T02:08:12.085Z,95.34
2022-11-24T02:10:40.063Z,95.29
2022-11-24T02:13:09.226Z,95.18
2022-11-24T02:15:37.024Z,94.80
2022-11-24T02:18:04.901Z,95.27
2022-11-24T02:20:34.076Z,95.37
2022-11-24T02:23:06.013Z,95.28
2022-11-24T02:25:41.989Z,94.47
2022-11-24T02:28:15.251Z,94.37
2022-11-24T02:30:43.447Z,94.80
2022-11-24T02:33:12.985Z,94.93
2022-11-24T02:35:41.043Z,94.38
2022-11-24T02:38:12.378Z,94.71
2022-11-24T02:40:42.511Z,94.69
2022-11-24T02:43:15.387Z,94.52
2022-11-24T02:45:42.914Z,94.52
2022-11-24T02:48:10.662Z,94.43
2022-11-24T02:50:38.936Z,94.50
2022-11-24T02:53:06.657Z,94.90
2022-11-24T02:55:34.391Z,95.27
2022-11-24T02:58:02.110Z,95.54
2022-11-24T03:00:31.415Z,95.90
2022-11-24T03:02:59.251Z,95.59
2022-11-24T03:05:27.344Z,96.16
2022-11-24T03:07:55.176Z,96.18
2022-11-24T03:10:22.954Z,96.60
2022-11-24T03:12:50.611Z,96.92
2022-11-24T03:15:18.664Z,97.13
2022-11-24T03:17:47.709Z,97.72
2022-11-24T03:20:15.375Z,98.70
2022-11-24T03:22:43.157Z,100.00
2022-11-24T03:25:11.350Z,100.00
2022-11-24T03:27:39.072Z,100.00
2022-11-24T03:30:08.120Z,100.00
2022-11-24T03:32:35.930Z,100.00
2022-11-24T03:35:06.068Z,100.00
2022-11-24T03:37:33.812Z,100.00
2022-11-24T03:40:01.687Z,100.00
2022-11-24T03:42:29.451Z,100.00
2022-11-24T03:44:57.151Z,100.00
2022-11-24T03:47:24.905Z,100.00
2022-11-24T03:49:52.634Z,100.00
2022-11-24T03:52:21.679Z,100.00
2022-11-24T03:54:49.381Z,100.00
2022-11-24T03:57:17.152Z,100.00
2022-11-24T03:59:44.815Z,100.00
2022-11-24T04:02:12.625Z,100.00
2022-11-24T04:04:40.348Z,100.00
2022-11-24T04:07:08.160Z,100.00
2022-11-24T04:09:37.267Z,100.00
2022-11-24T04:12:22.894Z,100.00
2022-11-24T04:14:50.590Z,100.00
2022-11-24T04:17:18.271Z,100.00
2022-11-24T04:19:45.985Z,100.00
2022-11-24T04:22:13.663Z,100.00
2022-11-24T04:24:42.737Z,100.00
2022-11-24T04:27:10.492Z,100.00
2022-11-24T04:29:38.227Z,100.00
2022-11-24T04:32:06.657Z,100.00
2022-11-24T04:34:34.558Z,100.00
2022-11-24T04:37:02.406Z,100.00
2022-11-24T04:39:30.052Z,100.00
2022-11-24T04:41:59.943Z,100.00
2022-11-24T04:44:27.978Z,100.00
2022-11-24T04:46:55.680Z,100.00
2022-11-24T04:49:23.593Z,100.00
2022-11-24T04:51:51.274Z,100.00
2022-11-24T04:54:19.014Z,100.00
2022-11-24T04:56:46.764Z,100.00
2022-11-24T04:59:15.930Z,100.00
2022-11-24T05:01:43.717Z,100.00
2022-11-24T05:04:12.502Z,100.00
2022-11-24T05:06:40.456Z,100.00
2022-11-24T05:09:08.883Z,100.00
2022-11-24T05:11:36.558Z,100.00
2022-11-24T05:14:04.263Z,100.00
2022-11-24T05:16:33.376Z,100.00
2022-11-24T05:19:01.126Z,100.00
2022-11-24T05:21:28.950Z,100.00
2022-11-24T05:23:56.671Z,100.00
2022-11-24T05:26:24.438Z,99.37
2022-11-24T05:28:52.228Z,98.91
2022-11-24T05:31:20.039Z,98.47
2022-11-24T05:33:49.903Z,97.10
2022-11-24T05:36:31.511Z,96.18
2022-11-24T05:38:59.223Z,96.89
2022-11-24T05:41:27.318Z,96.80
2022-11-24T05:43:55.060Z,96.69
2022-11-24T05:46:23.012Z,96.94
2022-11-24T05:48:52.226Z,97.20
2022-11-24T05:51:20.006Z,96.97
2022-11-24T05:53:47.648Z,96.79
2022-11-24T05:56:15.322Z,96.78
2022-11-24T05:58:43.898Z,96.53
2022-11-24T06:01:11.607Z,95.65
2022-11-24T06:03:39.322Z,94.54
2022-11-24T06:06:08.743Z,94.34
2022-11-24T06:08:36.521Z,95.11
2022-11-24T06:11:17.256Z,95.16
2022-11-24T06:13:46.184Z,95.17
2022-11-24T06:16:14.719Z,95.19
2022-11-24T06:18:42.627Z,95.08
2022-11-24T06:21:12.237Z,95.62
2022-11-24T06:23:40.415Z,95.91
2022-11-24T06:26:09.199Z,96.55
2022-11-24T06:28:37.043Z,97.30
2022-11-24T06:31:06.322Z,97.79
2022-11-24T06:33:34.669Z,98.39
2022-11-24T06:36:04.607Z,99.29
2022-11-24T06:38:35.362Z,100.00
2022-11-24T06:41:06.342Z,100.00
2022-11-24T06:43:35.361Z,100.00
2022-11-24T06:46:03.545Z,100.00
2022-11-24T06:48:32.039Z,100.00
2022-11-24T06:51:00.883Z,100.00
2022-11-24T06:53:31.534Z,100.00
2022-11-24T06:56:01.660Z,100.00
2022-11-24T06:58:29.687Z,100.00
2022-11-24T07:00:57.576Z,99.25
2022-11-24T07:03:25.460Z,99.42
2022-11-24T07:05:58.143Z,98.04
2022-11-24T07:08:26.508Z,97.32
2022-11-24T07:10:54.214Z,97.20
2022-11-24T07:13:23.270Z,97.59
2022-11-24T07:15:51.048Z,97.64
2022-11-24T07:18:18.814Z,97.67
2022-11-24T07:20:46.528Z,97.61
2022-11-24T07:23:14.393Z,98.25
2022-11-24T07:25:42.126Z,98.22
2022-11-24T07:28:10.086Z,98.77
2022-11-24T07:30:39.190Z,99.51
2022-11-24T07:33:06.889Z,99.44
2022-11-24T07:35:34.542Z,99.52
2022-11-24T07:38:02.357Z,100.00
2022-11-24T07:40:30.068Z,100.00
2022-11-24T07:43:00.868Z,100.00
2022-11-24T07:45:29.063Z,99.70
2022-11-24T07:47:58.989Z,100.00
2022-11-24T07:50:26.942Z,100.00
2022-11-24T07:52:54.908Z,100.00
2022-11-24T07:55:22.682Z,100.00
2022-11-24T07:57:50.472Z,100.00
2022-11-24T08:00:19.240Z,100.00
2022-11-24T08:02:47.121Z,100.00
2022-11-24T08:05:16.454Z,100.00
2022-11-24T08:07:44.713Z,100.00
2022-11-24T08:10:13.116Z,100.00
2022-11-24T08:12:41.118Z,100.00
2022-11-24T08:15:11.582Z,100.00
2022-11-24T08:17:39.609Z,100.00
2022-11-24T08:20:09.043Z,99.35
2022-11-24T08:22:38.168Z,98.16
2022-11-24T08:25:06.576Z,97.99
2022-11-24T08:27:34.300Z,98.33
2022-11-24T08:30:02.052Z,99.11
2022-11-24T08:32:29.963Z,98.99
2022-11-24T08:35:08.545Z,98.41
2022-11-24T08:37:42.793Z,98.18
2022-11-24T08:40:12.016Z,96.57
2022-11-24T08:42:39.847Z,95.90
2022-11-24T08:45:20.414Z,95.60
2022-11-24T08:47:53.072Z,93.78
2022-11-24T08:50:20.977Z,92.60
2022-11-24T08:52:50.116Z,93.37
2022-11-24T08:55:18.969Z,92.78
2022-11-24T08:57:46.789Z,92.35
2022-11-24T09:00:22.124Z,91.46
2022-11-24T09:02:57.897Z,90.63
2022-11-24T09:05:50.816Z,90.87
2022-11-24T09:08:15.362Z,89.84
2022-11-24T09:10:43.895Z,89.30
2022-11-24T09:13:11.611Z,89.32
2022-11-24T09:15:39.441Z,89.23
2022-11-24T09:18:07.276Z,90.01
2022-11-24T09:20:35.241Z,88.86
2022-11-24T09:23:02.954Z,89.82
2022-11-24T09:25:32.077Z,89.56
2022-11-24T09:27:59.994Z,89.26
2022-11-24T09:30:28.110Z,88.12
2022-11-24T09:32:57.115Z,88.85
2022-11-24T09:35:25.748Z,89.31
2022-11-24T09:37:53.553Z,89.04
2022-11-24T09:40:27.882Z,87.79
2022-11-24T09:43:02.479Z,86.49
2022-11-24T09:48:39.142Z,82.50
2022-11-24T09:51:10.609Z,81.33
2022-11-24T09:53:42.377Z,81.40
2022-11-24T09:56:19.760Z,78.53
2022-11-24T09:58:51.655Z,79.03
2022-11-24T10:01:21.730Z,79.46
2022-11-24T10:03:51.897Z,78.87
2022-11-24T10:06:25.809Z,77.30
2022-11-24T10:09:14.513Z,78.04
2022-11-24T10:11:49.799Z,77.62
2022-11-24T10:14:36.757Z,76.38
2022-11-24T10:17:18.511Z,75.47
2022-11-24T10:19:52.155Z,74.82
2022-11-24T10:22:35.672Z,75.44
2022-11-24T10:25:16.969Z,76.16
2022-11-24T10:27:46.415Z,75.95
2022-11-24T10:30:18.531Z,75.79
2022-11-24T10:32:57.065Z,75.87
2022-11-24T10:35:30.402Z,76.53
2022-11-24T10:38:07.612Z,76.65
2022-11-24T10:40:56.551Z,77.89
2022-11-24T10:43:27.733Z,77.38
2022-11-24T10:46:06.752Z,77.89
2022-11-24T10:48:41.924Z,77.92
2022-11-24T10:51:33.908Z,77.63
2022-11-24T10:54:08.235Z,78.32
2022-11-24T10:56:42.400Z,77.42
2022-11-24T10:59:36.003Z,77.49
2022-11-24T11:02:36.745Z,76.13
2022-11-24T11:05:42.175Z,74.77
2022-11-24T11:08:20.773Z,75.34
2022-11-24T11:10:49.881Z,76.00
2022-11-24T11:13:26.079Z,75.90
2022-11-24T11:15:54.234Z,74.56
2022-11-24T11:18:26.722Z,75.08
2022-11-24T11:20:56.703Z,74.25
2022-11-24T11:23:28.867Z,74.17
2022-11-24T11:26:20.082Z,73.04
2022-11-24T11:34:52.007Z,70.88
2022-11-24T11:37:21.148Z,71.80
2022-11-24T11:39:50.621Z,70.90
2022-11-24T11:42:59.920Z,71.84
2022-11-24T11:45:18.122Z,69.01
2022-11-24T11:47:52.342Z,68.74
2022-11-24T11:50:26.150Z,68.80
2022-11-24T11:53:06.193Z,69.36
2022-11-24T11:55:49.904Z,66.17
2022-11-24T11:58:33.827Z,65.33
2022-11-24T12:01:12.764Z,63.98
2022-11-24T12:03:56.585Z,63.63
2022-11-24T12:06:46.230Z,62.44
2022-11-24T12:09:26.060Z,62.92
2022-11-24T12:12:09.827Z,62.35
2022-11-24T12:14:45.812Z,61.75
2022-11-24T12:17:23.504Z,62.51
2022-11-24T12:20:08.309Z,63.88
2022-11-24T12:22:43.969Z,64.96
2022-11-24T12:25:27.934Z,66.71
2022-11-24T12:28:06.994Z,66.37
2022-11-24T12:30:44.438Z,66.57
2022-11-24T12:33:50.608Z,67.96
2022-11-24T12:36:35.152Z,66.92
2022-11-24T12:39:08.015Z,68.43
2022-11-24T12:41:50.466Z,68.82
2022-11-24T12:44:36.430Z,69.79
2022-11-24T12:47:15.135Z,68.49
2022-11-24T12:49:53.987Z,69.63
2022-11-24T12:52:27.048Z,68.35
2022-11-24T12:54:57.670Z,68.15
2022-11-24T12:57:31.473Z,67.54
2022-11-24T13:00:06.582Z,64.75
2022-11-24T13:02:56.076Z,65.97
2022-11-24T13:05:27.841Z,66.60
2022-11-24T13:07:59.171Z,66.30
2022-11-24T13:10:54.886Z,66.20
2022-11-24T13:13:27.303Z,64.62
2022-11-24T13:19:10.034Z,65.71
2022-11-24T13:21:59.383Z,66.73
2022-11-24T13:24:30.687Z,68.17
2022-11-24T13:27:27.723Z,69.37
2022-11-24T13:29:55.756Z,69.29
2022-11-24T13:32:47.450Z,69.69
2022-11-24T13:35:16.524Z,68.43
2022-11-24T13:37:52.880Z,68.59
2022-11-24T13:40:59.645Z,66.23
2022-11-24T13:43:33.752Z,68.23
2022-11-24T13:46:03.669Z,68.66
2022-11-24T13:48:58.657Z,69.80
2022-11-24T13:51:27.821Z,70.81
2022-11-24T13:53:58.017Z,71.49
2022-11-24T13:56:31.147Z,71.67
2022-11-24T13:59:04.097Z,71.53
2022-11-24T14:01:33.200Z,71.55
2022-11-24T14:04:30.616Z,71.53
2022-11-24T14:07:09.249Z,71.22
2022-11-24T14:09:43.131Z,71.79
2022-11-24T14:12:15.707Z,72.81
2022-11-24T14:14:46.225Z,71.82
2022-11-24T14:17:22.327Z,73.32
2022-11-24T14:19:51.718Z,71.85
2022-11-24T14:22:22.636Z,70.86
2022-11-24T14:24:56.560Z,71.43
2022-11-24T14:27:30.741Z,72.14
2022-11-24T14:30:02.007Z,73.39
2022-11-24T14:32:30.104Z,73.09
2022-11-24T14:34:57.972Z,70.74
2022-11-24T14:37:25.969Z,71.85
2022-11-24T14:39:53.669Z,71.50
2022-11-24T14:42:23.049Z,71.17
2022-11-24T14:44:55.613Z,71.58
2022-11-24T14:47:31.389Z,71.76
2022-11-24T14:50:10.387Z,71.68
2022-11-24T14:52:45.625Z,72.07
2022-11-24T14:55:25.986Z,72.68
2022-11-24T14:57:53.924Z,72.86
2022-11-24T15:00:29.496Z,72.65
2022-11-24T15:03:15.888Z,73.31
2022-11-24T15:05:56.071Z,73.81
2022-11-24T15:08:26.384Z,74.75
2022-11-24T15:10:59.148Z,74.34
2022-11-24T15:13:27.310Z,75.25
2022-11-24T15:16:02.341Z,74.53
2022-11-24T15:18:41.564Z,74.91
2022-11-24T15:21:14.146Z,75.17
2022-11-24T15:24:05.778Z,75.46
2022-11-24T15:26:38.540Z,75.65
2022-11-24T15:29:09.686Z,75.71
2022-11-24T15:31:38.019Z,76.04
2022-11-24T15:34:07.743Z,76.72
2022-11-24T15:36:35.790Z,76.96
2022-11-24T15:39:03.544Z,77.08
2022-11-24T15:41:33.356Z,77.35
2022-11-24T15:44:01.218Z,77.97
2022-11-24T15:46:30.009Z,78.53
2022-11-24T15:48:58.068Z,78.61
2022-11-24T15:51:27.938Z,79.15
2022-11-24T15:54:01.088Z,79.11
2022-11-24T15:56:33.269Z,79.88
2022-11-24T15:59:01.470Z,80.12
2022-11-24T16:01:32.207Z,80.19
2022-11-24T16:04:00.246Z,80.53
2022-11-24T16:06:29.368Z,81.08
2022-11-24T16:08:58.145Z,81.89
2022-11-24T16:11:25.943Z,82.13
2022-11-24T16:13:54.487Z,82.17
2022-11-24T16:16:27.242Z,82.76
2022-11-24T16:18:55.105Z,82.99
2022-11-24T16:21:23.205Z,83.62
2022-11-24T16:23:52.567Z,83.84
2022-11-24T16:26:20.433Z,83.87
2022-11-24T16:28:48.243Z,84.07
2022-11-24T16:31:16.552Z,84.54
2022-11-24T16:33:46.314Z,85.11
2022-11-24T16:36:14.738Z,85.44
2022-11-24T16:38:42.596Z,85.52
2022-11-24T16:41:11.662Z,85.88
2022-11-24T16:43:39.884Z,85.66
2022-11-24T16:46:21.636Z,86.13
2022-11-24T16:48:51.260Z,86.18
2022-11-24T16:51:20.644Z,86.21
2022-11-24T16:53:48.966Z,86.43
2022-11-24T16:56:18.118Z,86.62
2022-11-24T16:58:45.775Z,86.93
2022-11-24T17:01:14.799Z,87.45
2022-11-24T17:03:42.764Z,87.53
2022-11-24T17:06:12.472Z,88.05
2022-11-24T17:08:41.548Z,88.34
2022-11-24T17:11:09.844Z,88.59
2022-11-24T17:13:39.465Z,89.40
2022-11-24T17:16:09.182Z,89.36
2022-11-24T17:18:38.459Z,89.37
2022-11-24T17:21:09.840Z,89.42
2022-11-24T17:23:38.353Z,89.94
2022-11-24T17:26:08.179Z,90.67
2022-11-24T17:28:36.886Z,91.16
2022-11-24T17:31:09.752Z,91.42
2022-11-24T17:33:37.433Z,92.08
2022-11-24T17:36:06.057Z,92.54
2022-11-24T17:38:35.074Z,93.14
2022-11-24T17:41:03.744Z,93.43
2022-11-24T17:43:31.489Z,93.52
2022-11-24T17:46:02.001Z,94.08
2022-11-24T17:48:32.459Z,94.41
2022-11-24T17:51:01.635Z,94.37
2022-11-24T17:53:29.871Z,94.96
2022-11-24T17:56:00.070Z,95.07
2022-11-24T17:58:28.363Z,94.93
2022-11-24T18:00:56.191Z,95.52
2022-11-24T18:03:25.564Z,95.68
2022-11-24T18:05:54.685Z,96.04
2022-11-24T18:08:22.425Z,96.07
2022-11-24T18:10:50.189Z,96.31
2022-11-24T18:13:40.679Z,96.39
2022-11-24T18:16:07.942Z,96.96
2022-11-24T18:18:40.130Z,96.97
2022-11-24T18:21:14.283Z,97.21
2022-11-24T18:23:43.220Z,97.41
2022-11-24T18:26:14.886Z,97.28
2022-11-24T18:28:43.576Z,97.35
2022-11-24T18:31:13.356Z,97.62
2022-11-24T18:33:42.857Z,97.61
2022-11-24T18:36:14.442Z,98.37
2022-11-24T18:38:42.317Z,98.44
2022-11-24T18:41:10.537Z,98.50
2022-11-24T18:43:38.983Z,98.79
2022-11-24T18:46:08.502Z,99.04
2022-11-24T18:48:36.859Z,98.81
2022-11-24T18:51:04.973Z,98.84
2022-11-24T18:53:34.175Z,98.95
2022-11-24T18:56:04.098Z,99.08
2022-11-24T18:58:33.229Z,99.54
2022-11-24T19:01:08.121Z,99.76
2022-11-24T19:03:42.334Z,99.86
2022-11-24T19:06:16.354Z,100.00
2022-11-24T19:08:46.001Z,99.89
2022-11-24T19:11:21.214Z,100.00
2022-11-24T19:13:49.427Z,100.00
2022-11-24T19:16:18.021Z,100.00
2022-11-24T19:18:51.874Z,100.00
2022-11-24T19:21:21.573Z,100.00
2022-11-24T19:23:51.057Z,100.00
2022-11-24T19:26:19.158Z,100.00
2022-11-24T19:28:46.978Z,100.00
2022-11-24T19:31:16.832Z,100.00
2022-11-24T19:33:44.920Z,100.00
2022-11-24T19:36:14.859Z,100.00
2022-11-24T19:38:43.982Z,100.00
2022-11-24T19:41:14.914Z,100.00
2022-11-24T19:43:43.367Z,100.00
2022-11-24T19:46:13.803Z,100.00
2022-11-24T19:48:43.948Z,100.00
2022-11-24T19:51:14.433Z,100.00
2022-11-24T19:53:43.242Z,100.00
2022-11-24T19:56:13.823Z,100.00
2022-11-24T19:58:41.890Z,100.00
2022-11-24T20:01:11.715Z,100.00
2022-11-24T20:03:40.440Z,100.00
2022-11-24T20:06:10.690Z,100.00
2022-11-24T20:08:40.162Z,100.00
2022-11-24T20:11:09.744Z,100.00
2022-11-24T20:13:40.712Z,100.00
2022-11-24T20:16:10.375Z,100.00
2022-11-24T20:18:42.153Z,100.00
2022-11-24T20:21:12.151Z,100.00
2022-11-24T20:23:41.192Z,100.00
2022-11-24T20:26:11.049Z,100.00
2022-11-24T20:28:40.569Z,100.00
2022-11-24T20:31:10.297Z,100.00
2022-11-24T20:33:38.421Z,100.00
2022-11-24T20:36:08.391Z,100.00
2022-11-24T20:38:37.979Z,100.00
2022-11-24T20:41:09.378Z,100.00
2022-11-24T20:43:37.642Z,100.00
2022-11-24T20:46:09.232Z,100.00
2022-11-24T20:48:37.502Z,100.00
2022-11-24T20:51:05.458Z,100.00
2022-11-24T20:53:33.411Z,100.00
2022-11-24T20:56:05.902Z,100.00
2022-11-24T20:58:35.150Z,100.00
2022-11-24T21:01:08.627Z,100.00
2022-11-24T21:03:42.580Z,100.00
2022-11-24T21:06:12.259Z,100.00
2022-11-24T21:08:41.837Z,100.00
2022-11-24T21:11:12.118Z,100.00
2022-11-24T21:13:42.275Z,100.00
2022-11-24T21:16:16.329Z,100.00
2022-11-24T21:18:45.158Z,100.00
2022-11-24T21:21:14.118Z,100.00
2022-11-24T21:23:42.196Z,100.00
2022-11-24T21:26:16.187Z,100.00
2022-11-24T21:28:46.251Z,100.00
2022-11-24T21:31:17.229Z,100.00
2022-11-24T21:33:46.437Z,100.00
2022-11-24T21:36:15.877Z,100.00
2022-11-24T21:38:43.983Z,100.00
2022-11-24T21:41:14.022Z,100.00
2022-11-24T21:43:42.023Z,100.00
2022-11-24T21:46:11.839Z,100.00
2022-11-24T21:48:42.409Z,100.00
2022-11-24T21:51:13.645Z,100.00
2022-11-24T21:53:42.242Z,100.00
2022-11-24T21:56:13.722Z,100.00
2022-11-24T21:58:45.995Z,100.00
2022-11-24T22:01:14.314Z,100.00
2022-11-24T22:03:44.047Z,100.00
2022-11-24T22:06:12.168Z,100.00
2022-11-24T22:08:40.207Z,100.00
2022-11-24T22:11:11.227Z,100.00
2022-11-24T22:13:39.067Z,100.00
2022-11-24T22:16:09.011Z,100.00
2022-11-24T22:18:39.069Z,100.00
2022-11-24T22:21:09.655Z,100.00
2022-11-24T22:23:37.766Z,100.00
2022-11-24T22:26:06.929Z,100.00
2022-11-24T22:28:35.809Z,100.00
2022-11-24T22:31:08.025Z,100.00
2022-11-24T22:33:36.182Z,100.00
2022-11-24T22:36:04.398Z,100.00
2022-11-24T22:38:34.605Z,100.00
2022-11-24T22:41:02.975Z,100.00
2022-11-24T22:43:32.611Z,100.00
2022-11-24T22:46:05.083Z,100.00
2022-11-24T22:48:33.464Z,100.00
2022-11-24T22:51:05.111Z,100.00
2022-11-24T22:53:34.848Z,100.00
2022-11-24T22:56:02.921Z,100.00
2022-11-24T22:58:31.152Z,100.00
2022-11-24T23:01:04.187Z,100.00
2022-11-24T23:03:32.083Z,100.00
2022-11-24T23:06:00.573Z,100.00
2022-11-24T23:08:28.343Z,100.00
2022-11-24T23:11:01.891Z,100.00
2022-11-24T23:13:29.729Z,100.00
2022-11-24T23:16:01.945Z,100.00
2022-11-24T23:18:29.747Z,100.00
2022-11-24T23:20:57.722Z,100.00
2022-11-24T23:23:25.405Z,100.00
2022-11-24T23:25:53.082Z,100.00
2022-11-24T23:28:22.166Z,100.00
2022-11-24T23:30:49.856Z,100.00
2022-11-24T23:33:17.567Z,100.00
2022-11-24T23:35:45.516Z,100.00
2022-11-24T23:38:13.256Z,100.00
2022-11-24T23:40:40.968Z,100.00
2022-11-24T23:43:08.748Z,100.00
2022-11-24T23:45:38.026Z,100.00
2022-11-24T23:48:08.473Z,100.00
2022-11-24T23:50:36.472Z,100.00
2022-11-24T23:53:04.140Z,100.00
2022-11-24T23:55:31.817Z,100.00
2022-11-24T23:57:59.583Z,100.00
